X  Schließen Metar Luftfahrt Wetterdaten     LIML Milano Linate Airport
Temperatur
22°C Temperatur
14°C Taupunkt
61% Feuchtigkeit



Wind
11 KM/H
7 MPH
3 M/S
6 KTS



150°
SSO
Aktuelle Wetterlage

Meistens bewölkt Meistens bewölkt
Luftdruck 1005.92 (hPa) - 29.7 (inHg)
Sichtweite 6.2 (Meile) - 10 (km)
Flughafen
Flughafen Code LIML

Position : Milano Linate Airport
Entfernung: 100 (km)

Metar:
LIML 041020Z 15006KT 100V180 9999 BKN100 22/14 Q1006 NOSIG

Zeit: 04-08-2020 12:20 CEST